This is the latest recevied weather packets stored in our database for station/object WP4PW. If no packets are shown the sender has not sent any weather packets the latest 10 day(s).
| Time | Temp. | Humidity | Pressure | Rain* | Wind** | Luminosity | Snow |
|---|---|---|---|---|---|---|---|
| 1777484925 | 28.89° C | 77% | 1017.9 hPa | 0 mm | - | 526 W/m² | - |
| 1777484622 | 30° C | 76% | 1018.1 hPa | 0 mm | - | 788 W/m² | - |
| 1777484319 | 29.44° C | 79% | 1018.1 hPa | 0 mm | - | 439 W/m² | - |
| 1777484014 | 29.44° C | 77% | 1018.2 hPa | 0 mm | - | 764 W/m² | - |
| 1777483712 | 29.44° C | 79% | 1018.5 hPa | 0 mm | - | 379 W/m² | - |
| 1777483407 | 29.44° C | 80% | 1018.6 hPa | 0 mm | - | 488 W/m² | - |
| 1777483102 | 28.89° C | 80% | 1018.5 hPa | 0 mm | - | 391 W/m² | - |
| 1777482800 | 29.44° C | 76% | 1018.5 hPa | 0 mm | - | 480 W/m² | - |
| 1777482495 | 30° C | 77% | 1018.7 hPa | 0 mm | - | 602 W/m² | - |
| 1777482193 | 30° C | 77% | 1018.6 hPa | 0 mm | - | 692 W/m² | - |
| 1777481890 | 30° C | 77% | 1018.7 hPa | 0 mm | - | 601 W/m² | - |
| 1777481588 | 30° C | 76% | 1018.9 hPa | 0 mm | - | 490 W/m² | - |
| 1777481285 | 30° C | 76% | 1019 hPa | 0 mm | - | 854 W/m² | - |
| 1777480981 | 28.89° C | 76% | 1018.7 hPa | 0 mm | - | 884 W/m² | - |
| 1777480678 | 29.44° C | 79% | 1019 hPa | 0 mm | - | 750 W/m² | - |
| 1777480374 | 30° C | 78% | 1018.7 hPa | 0 mm | - | 625 W/m² | - |
| 1777480070 | 30° C | 78% | 1019.1 hPa | 0 mm | - | 793 W/m² | - |
| 1777479767 | 29.44° C | 79% | 1019 hPa | 0 mm | - | 776 W/m² | - |
| 1777479465 | 29.44° C | 80% | 1019.1 hPa | 0 mm | - | 594 W/m² | - |
| 1777479161 | 30° C | 80% | 1019.1 hPa | 0 mm | - | 483 W/m² | - |
| 1777478858 | 30° C | 77% | 1019.3 hPa | 0 mm | - | 833 W/m² | - |
| 1777478554 | 29.44° C | 81% | 1019.2 hPa | 0 mm | - | 398 W/m² | - |
| 1777478252 | 30° C | 78% | 1019.3 hPa | 0 mm | - | 944 W/m² | - |
| 1777477948 | 29.44° C | 80% | 1019.2 hPa | 0 mm | - | 936 W/m² | - |
| 1777477643 | 28.89° C | 81% | 1019 hPa | 0 mm | - | 688 W/m² | - |
* Rain latest hour (hover to see other rain measurements)
** Current wind speed in m/s (hover to see current wind gust speed)